createdAt,value
2022-09-20T00:11:42.954Z,100.00
2022-09-20T00:16:46.562Z,100.00
2022-09-20T00:21:50.058Z,100.00
2022-09-20T00:26:55.253Z,100.00
2022-09-20T00:31:58.719Z,100.00
2022-09-20T00:37:02.197Z,100.00
2022-09-20T00:42:07.773Z,100.00
2022-09-20T00:47:16.525Z,100.00
2022-09-20T00:52:21.586Z,100.00
2022-09-20T00:57:26.989Z,100.00
2022-09-20T01:02:32.639Z,100.00
2022-09-20T01:07:36.746Z,100.00
2022-09-20T01:12:44.323Z,100.00
2022-09-20T01:17:51.272Z,100.00
2022-09-20T01:23:22.792Z,100.00
2022-09-20T01:28:29.315Z,100.00
2022-09-20T01:33:43.341Z,100.00
2022-09-20T01:38:58.571Z,100.00
2022-09-20T01:44:11.149Z,100.00
2022-09-20T01:49:27.094Z,100.00
2022-09-20T01:55:10.216Z,100.00
2022-09-20T02:00:19.321Z,100.00
2022-09-20T02:05:42.185Z,100.00
2022-09-20T02:11:10.060Z,100.00
2022-09-20T02:16:32.231Z,100.00
2022-09-20T02:21:42.605Z,100.00
2022-09-20T02:26:58.725Z,100.00
2022-09-20T02:32:19.126Z,100.00
2022-09-20T02:37:56.187Z,100.00
2022-09-20T02:43:09.796Z,100.00
2022-09-20T02:48:19.016Z,100.00
2022-09-20T02:53:38.223Z,100.00
2022-09-20T02:58:54.207Z,100.00
2022-09-20T03:04:09.127Z,100.00
2022-09-20T03:09:19.447Z,100.00
2022-09-20T03:14:29.406Z,100.00
2022-09-20T03:19:49.495Z,100.00
2022-09-20T03:25:08.666Z,100.00
2022-09-20T03:30:28.872Z,100.00
2022-09-20T03:35:55.037Z,100.00
2022-09-20T03:41:24.597Z,100.00
2022-09-20T03:46:29.379Z,100.00
2022-09-20T03:51:46.410Z,100.00
2022-09-20T03:57:21.603Z,100.00
2022-09-20T04:02:42.636Z,100.00
2022-09-20T04:08:00.033Z,100.00
2022-09-20T04:13:21.305Z,100.00
2022-09-20T04:18:29.992Z,100.00
2022-09-20T04:23:43.905Z,100.00
2022-09-20T04:28:53.032Z,100.00
2022-09-20T04:33:59.548Z,100.00
2022-09-20T04:39:15.652Z,100.00
2022-09-20T04:44:55.086Z,100.00
2022-09-20T04:50:32.504Z,100.00
2022-09-20T04:55:55.677Z,100.00
2022-09-20T05:01:32.294Z,100.00
2022-09-20T05:07:04.797Z,100.00
2022-09-20T05:12:35.940Z,100.00
2022-09-20T05:18:10.139Z,100.00
2022-09-20T05:23:47.519Z,100.00
2022-09-20T05:28:59.336Z,100.00
2022-09-20T05:34:11.289Z,100.00
2022-09-20T05:39:29.804Z,100.00
2022-09-20T05:44:58.959Z,100.00
2022-09-20T05:50:17.184Z,100.00
2022-09-20T05:55:43.505Z,100.00
2022-09-20T06:00:54.349Z,100.00
2022-09-20T06:06:09.654Z,100.00
2022-09-20T06:11:27.482Z,100.00
2022-09-20T06:16:43.647Z,100.00
2022-09-20T06:21:52.698Z,100.00
2022-09-20T06:26:59.099Z,100.00
2022-09-20T06:32:04.054Z,100.00
2022-09-20T06:37:39.359Z,100.00
2022-09-20T06:42:44.505Z,100.00
2022-09-20T06:47:49.468Z,100.00
2022-09-20T06:52:53.670Z,100.00
2022-09-20T06:57:57.483Z,100.00
2022-09-20T07:03:02.378Z,100.00
2022-09-20T07:08:06.050Z,100.00
2022-09-20T07:13:13.964Z,100.00
2022-09-20T07:18:18.853Z,100.00
2022-09-20T07:23:22.444Z,100.00
2022-09-20T07:28:26.240Z,100.00
2022-09-20T07:33:31.197Z,100.00
2022-09-20T07:38:34.757Z,100.00
2022-09-20T07:43:38.765Z,100.00
2022-09-20T07:48:43.650Z,100.00
2022-09-20T07:53:47.175Z,100.00
2022-09-20T07:58:52.515Z,100.00
2022-09-20T08:03:58.042Z,100.00
2022-09-20T08:09:01.608Z,100.00
2022-09-20T08:14:06.990Z,100.00
2022-09-20T08:19:17.095Z,100.00
2022-09-20T08:24:21.095Z,100.00
2022-09-20T08:29:25.291Z,100.00
2022-09-20T08:34:31.005Z,100.00
2022-09-20T08:45:02.074Z,100.00
2022-09-20T08:50:11.835Z,100.00
2022-09-20T08:55:23.971Z,100.00
2022-09-20T09:00:32.013Z,100.00
2022-09-20T09:05:42.438Z,100.00
2022-09-20T09:10:53.281Z,100.00
2022-09-20T09:16:00.797Z,100.00
2022-09-20T09:21:08.595Z,100.00
2022-09-20T09:26:21.276Z,100.00
2022-09-20T09:31:26.886Z,100.00
2022-09-20T09:36:33.763Z,100.00
2022-09-20T09:41:37.357Z,100.00
2022-09-20T09:46:41.521Z,100.00
2022-09-20T09:52:02.730Z,100.00
2022-09-20T09:57:17.847Z,100.00
2022-09-20T10:02:43.168Z,100.00
2022-09-20T10:07:56.041Z,100.00
2022-09-20T10:13:13.032Z,100.00
2022-09-20T10:18:28.220Z,100.00
2022-09-20T10:24:09.294Z,100.00
2022-09-20T10:29:26.243Z,100.00
2022-09-20T10:34:46.853Z,100.00
2022-09-20T10:40:00.351Z,100.00
2022-09-20T10:45:24.463Z,100.00
2022-09-20T10:50:43.875Z,100.00
2022-09-20T10:55:59.236Z,100.00
2022-09-20T11:01:11.965Z,100.00
2022-09-20T11:06:21.432Z,100.00
2022-09-20T11:11:32.655Z,100.00
2022-09-20T11:16:39.680Z,100.00
2022-09-20T11:21:48.029Z,100.00
2022-09-20T11:26:56.053Z,100.00
2022-09-20T11:32:07.567Z,100.00
2022-09-20T11:37:11.480Z,97.58
2022-09-20T11:42:19.237Z,89.00
2022-09-20T11:47:49.841Z,92.74
2022-09-20T11:53:04.993Z,95.07
2022-09-20T11:58:12.939Z,94.48
2022-09-20T12:03:30.273Z,97.57
2022-09-20T12:08:36.479Z,97.48
2022-09-20T12:13:43.204Z,95.23
2022-09-20T12:19:03.723Z,85.34
2022-09-20T12:24:23.014Z,81.98
2022-09-20T12:30:07.066Z,79.54
2022-09-20T12:35:57.586Z,79.33
2022-09-20T12:41:10.476Z,77.24
2022-09-20T12:46:22.892Z,74.09
2022-09-20T12:51:50.791Z,73.94
2022-09-20T12:56:54.392Z,73.82
2022-09-20T13:02:34.971Z,75.54
2022-09-20T13:07:55.185Z,76.09
2022-09-20T13:13:17.980Z,77.30
2022-09-20T13:18:26.106Z,71.52
2022-09-20T13:23:32.257Z,71.99
2022-09-20T13:28:41.656Z,70.64
2022-09-20T13:33:46.665Z,70.32
2022-09-20T13:38:50.599Z,76.33
2022-09-20T13:43:54.335Z,78.36
2022-09-20T13:49:14.916Z,80.80
2022-09-20T13:54:21.848Z,81.87
2022-09-20T13:59:27.789Z,82.74
2022-09-20T14:04:33.054Z,80.76
2022-09-20T14:09:40.027Z,79.73
2022-09-20T14:14:43.789Z,80.78
2022-09-20T14:19:53.669Z,81.46
2022-09-20T14:25:00.120Z,80.82
2022-09-20T14:30:04.693Z,80.57
2022-09-20T14:35:18.353Z,80.46
2022-09-20T14:40:27.016Z,77.46
2022-09-20T14:45:33.508Z,75.18
2022-09-20T14:50:40.972Z,71.69
2022-09-20T14:56:00.647Z,64.64
2022-09-20T15:01:24.647Z,65.13
2022-09-20T15:06:29.576Z,65.71
2022-09-20T15:11:33.242Z,65.59
2022-09-20T15:16:36.945Z,67.73
2022-09-20T15:21:41.858Z,69.91
2022-09-20T15:26:45.773Z,70.22
2022-09-20T15:31:49.892Z,71.33
2022-09-20T15:36:55.356Z,69.81
2022-09-20T15:41:58.767Z,71.40
2022-09-20T15:47:03.271Z,70.23
2022-09-20T15:52:08.441Z,69.03
2022-09-20T15:57:11.940Z,67.82
2022-09-20T16:02:15.480Z,68.89
2022-09-20T16:07:24.253Z,69.43
2022-09-20T16:12:27.843Z,70.29
2022-09-20T16:17:48.733Z,69.81
2022-09-20T16:22:53.595Z,68.65
2022-09-20T16:27:57.127Z,68.74
2022-09-20T16:33:05.564Z,69.81
2022-09-20T16:38:11.076Z,70.97
2022-09-20T16:43:15.500Z,69.03
2022-09-20T16:48:19.100Z,69.40
2022-09-20T16:53:24.065Z,70.46
2022-09-20T16:58:28.572Z,71.17
2022-09-20T17:03:32.532Z,71.90
2022-09-20T17:08:40.159Z,74.72
2022-09-20T17:13:45.297Z,75.27
2022-09-20T17:18:54.387Z,78.13
2022-09-20T17:24:00.991Z,78.51
2022-09-20T17:29:07.318Z,78.87
2022-09-20T17:34:12.774Z,78.79
2022-09-20T17:39:18.320Z,77.68
2022-09-20T17:44:21.967Z,78.46
2022-09-20T17:49:26.958Z,79.89
2022-09-20T17:54:31.739Z,82.36
2022-09-20T17:59:36.709Z,84.38
2022-09-20T18:04:42.517Z,87.23
2022-09-20T18:09:47.434Z,89.09
2022-09-20T18:14:50.928Z,89.49
2022-09-20T18:19:54.595Z,90.89
2022-09-20T18:24:59.704Z,93.18
2022-09-20T18:30:03.212Z,95.43
2022-09-20T18:35:07.266Z,97.27
2022-09-20T18:40:12.563Z,97.87
2022-09-20T18:45:22.077Z,98.58
2022-09-20T18:50:26.777Z,100.00
2022-09-20T18:55:32.160Z,100.00
2022-09-20T19:00:36.037Z,100.00
2022-09-20T19:05:45.200Z,100.00
2022-09-20T19:10:54.936Z,100.00
2022-09-20T19:16:11.294Z,100.00
2022-09-20T19:21:24.262Z,100.00
2022-09-20T19:26:31.531Z,100.00
2022-09-20T19:31:35.622Z,100.00
2022-09-20T19:36:51.291Z,100.00
2022-09-20T19:42:07.156Z,100.00
2022-09-20T19:47:25.163Z,100.00
2022-09-20T19:52:29.266Z,100.00
2022-09-20T19:57:37.419Z,100.00
2022-09-20T20:02:41.526Z,100.00
2022-09-20T20:07:53.566Z,100.00
2022-09-20T20:13:27.698Z,100.00
2022-09-20T20:18:39.291Z,100.00
2022-09-20T20:24:01.525Z,100.00
2022-09-20T20:29:06.418Z,100.00
2022-09-20T20:34:12.035Z,100.00
2022-09-20T20:39:15.966Z,100.00
2022-09-20T20:44:21.981Z,100.00
2022-09-20T20:49:25.529Z,100.00
2022-09-20T20:54:29.079Z,100.00
2022-09-20T20:59:33.986Z,100.00
2022-09-20T21:04:39.924Z,100.00
2022-09-20T21:09:43.365Z,100.00
2022-09-20T21:14:48.210Z,100.00
2022-09-20T21:19:51.628Z,100.00
2022-09-20T21:24:55.312Z,100.00
2022-09-20T21:30:00.413Z,100.00
2022-09-20T21:35:03.941Z,100.00
2022-09-20T21:40:10.022Z,100.00
2022-09-20T21:45:14.962Z,100.00
2022-09-20T21:50:18.379Z,100.00
2022-09-20T21:55:21.746Z,100.00
2022-09-20T22:00:27.275Z,100.00
2022-09-20T22:05:30.721Z,100.00
2022-09-20T22:10:34.167Z,100.00
2022-09-20T22:15:38.951Z,100.00
2022-09-20T22:20:42.969Z,100.00
2022-09-20T22:25:46.809Z,100.00
2022-09-20T22:30:52.673Z,100.00
2022-09-20T22:35:56.528Z,100.00
2022-09-20T22:41:00.925Z,100.00
2022-09-20T22:46:08.522Z,100.00
2022-09-20T22:51:14.041Z,100.00
2022-09-20T22:56:21.207Z,100.00
2022-09-20T23:01:28.226Z,100.00
2022-09-20T23:06:34.192Z,100.00
2022-09-20T23:11:39.413Z,100.00
2022-09-20T23:16:45.552Z,100.00
2022-09-20T23:21:49.514Z,100.00
2022-09-20T23:26:53.444Z,100.00
2022-09-20T23:31:58.667Z,100.00
2022-09-20T23:37:02.524Z,100.00
2022-09-20T23:42:07.152Z,100.00
2022-09-20T23:47:12.430Z,100.00
2022-09-20T23:52:16.255Z,100.00
2022-09-20T23:57:20.122Z,100.00
